createdAt,value
2018-07-05T00:00:53.830Z,97758.95
2018-07-05T00:03:40.559Z,97759.13
2018-07-05T00:06:26.846Z,97750.21
2018-07-05T00:09:16.613Z,97750.47
2018-07-05T00:12:03.086Z,97740.83
2018-07-05T00:14:49.533Z,97739.25
2018-07-05T00:17:35.988Z,97734.64
2018-07-05T00:20:22.507Z,97731.22
2018-07-05T00:23:08.962Z,97729.71
2018-07-05T00:25:55.750Z,97736.40
2018-07-05T00:28:42.304Z,97742.30
2018-07-05T00:31:28.638Z,97752.47
2018-07-05T00:34:14.952Z,97757.41
2018-07-05T00:37:01.749Z,97740.48
2018-07-05T00:39:48.083Z,97736.69
2018-07-05T00:42:39.491Z,97736.87
2018-07-05T00:45:26.040Z,97746.27
2018-07-05T00:48:12.670Z,97749.52
2018-07-05T00:50:59.232Z,97740.33
2018-07-05T00:53:45.673Z,97739.53
2018-07-05T00:56:32.194Z,97740.33
2018-07-05T00:59:18.466Z,97741.67
2018-07-05T01:02:05.096Z,97737.17
2018-07-05T01:04:51.470Z,97731.91
2018-07-05T01:07:37.864Z,97733.85
2018-07-05T01:10:24.362Z,97732.67
2018-07-05T01:13:10.731Z,97728.56
2018-07-05T01:15:57.169Z,97726.39
2018-07-05T01:18:43.752Z,97722.77
2018-07-05T01:21:30.115Z,97727.88
2018-07-05T01:24:16.636Z,97734.09
2018-07-05T01:27:07.607Z,97733.17
2018-07-05T01:29:54.045Z,97741.25
2018-07-05T01:32:40.557Z,97742.66
2018-07-05T01:35:27.013Z,97741.22
2018-07-05T01:38:13.540Z,97740.75
2018-07-05T01:40:59.927Z,97736.70
2018-07-05T01:43:46.358Z,97742.23
2018-07-05T01:46:32.812Z,97737.73
2018-07-05T01:49:19.289Z,97729.00
2018-07-05T01:52:10.095Z,97728.91
2018-07-05T01:54:56.492Z,97729.37
2018-07-05T01:57:42.822Z,97719.44
2018-07-05T02:00:29.175Z,97723.32
2018-07-05T02:03:15.424Z,97724.52
2018-07-05T02:06:01.836Z,97719.55
2018-07-05T02:08:48.176Z,97713.22
2018-07-05T02:11:34.351Z,97715.50
2018-07-05T02:14:20.726Z,97713.37
2018-07-05T02:17:07.124Z,97714.77
2018-07-05T02:19:53.548Z,97718.09
2018-07-05T02:22:39.989Z,97727.77
2018-07-05T02:25:26.480Z,97732.05
2018-07-05T02:28:12.947Z,97745.33
2018-07-05T02:31:02.711Z,97743.95
2018-07-05T02:33:49.264Z,97737.00
2018-07-05T02:36:35.596Z,97738.58
2018-07-05T02:39:27.164Z,97739.77
2018-07-05T02:42:13.860Z,97749.55
2018-07-05T02:45:00.351Z,97742.06
2018-07-05T02:47:46.864Z,97740.21
2018-07-05T02:50:33.369Z,97739.13
2018-07-05T02:53:19.738Z,97743.55
2018-07-05T02:56:06.253Z,97752.59
2018-07-05T02:58:52.793Z,97745.92
2018-07-05T03:01:39.264Z,97752.52
2018-07-05T03:04:25.508Z,97755.72
2018-07-05T03:07:11.894Z,97748.90
2018-07-05T03:09:58.268Z,97741.81
2018-07-05T03:12:44.627Z,97742.55
2018-07-05T03:15:31.001Z,97748.81
2018-07-05T03:18:17.432Z,97753.33
2018-07-05T03:21:03.695Z,97750.19
2018-07-05T03:23:49.995Z,97751.36
2018-07-05T03:26:36.380Z,97745.19
2018-07-05T03:29:22.768Z,97745.02
2018-07-05T03:32:09.112Z,97741.59
2018-07-05T03:34:55.711Z,97740.70
2018-07-05T03:37:42.036Z,97744.94
2018-07-05T03:40:28.668Z,97740.67
2018-07-05T03:43:15.043Z,97738.34
2018-07-05T03:46:01.652Z,97739.30
2018-07-05T03:48:48.049Z,97749.20
2018-07-05T03:51:34.522Z,97750.50
2018-07-05T03:54:21.012Z,97738.63
2018-07-05T03:57:07.548Z,97740.88
2018-07-05T03:59:53.832Z,97731.93
2018-07-05T04:02:40.230Z,97733.99
2018-07-05T04:05:26.520Z,97734.60
2018-07-05T04:08:12.681Z,97736.23
2018-07-05T04:10:59.159Z,97741.70
2018-07-05T04:13:45.540Z,97739.30
2018-07-05T04:16:31.881Z,97736.87
2018-07-05T04:19:18.069Z,97723.69
2018-07-05T04:22:04.346Z,97726.05
2018-07-05T04:24:50.732Z,97728.30
2018-07-05T04:27:37.003Z,97733.17
2018-07-05T04:30:23.525Z,97736.05
2018-07-05T04:33:09.997Z,97736.27
2018-07-05T04:35:56.338Z,97735.20
2018-07-05T04:38:42.580Z,97733.38
2018-07-05T04:41:29.107Z,97741.41
2018-07-05T04:44:15.596Z,97740.00
2018-07-05T04:47:02.122Z,97746.84
2018-07-05T04:49:48.638Z,97747.02
2018-07-05T04:52:35.009Z,97740.09
2018-07-05T04:55:21.352Z,97744.37
2018-07-05T04:58:07.730Z,97746.39
2018-07-05T05:00:53.979Z,97746.86
2018-07-05T05:03:40.263Z,97743.42
2018-07-05T05:06:26.524Z,97741.29
2018-07-05T05:09:13.112Z,97741.36
2018-07-05T05:12:03.236Z,97737.08
2018-07-05T05:14:49.737Z,97737.55
2018-07-05T05:17:36.937Z,97734.00
2018-07-05T05:20:23.415Z,97734.92
2018-07-05T05:23:09.641Z,97733.55
2018-07-05T05:25:55.919Z,97726.50
2018-07-05T05:28:42.474Z,97723.48
2018-07-05T05:31:28.829Z,97724.94
2018-07-05T05:34:15.264Z,97727.77
2018-07-05T05:37:01.810Z,97727.77
2018-07-05T05:39:48.168Z,97722.28
2018-07-05T05:42:34.368Z,97725.52
2018-07-05T05:45:20.728Z,97729.00
2018-07-05T05:48:06.971Z,97736.80
2018-07-05T05:50:53.120Z,97734.42
2018-07-05T05:53:39.473Z,97735.36
2018-07-05T05:56:25.761Z,97735.08
2018-07-05T05:59:12.140Z,97733.88
2018-07-05T06:01:58.484Z,97727.69
2018-07-05T06:04:44.716Z,97719.56
2018-07-05T06:07:31.144Z,97724.84
2018-07-05T06:10:17.615Z,97723.64
2018-07-05T06:13:04.133Z,97721.95
2018-07-05T06:15:53.651Z,97720.06
2018-07-05T06:18:39.982Z,97722.61
2018-07-05T06:21:26.338Z,97717.61
2018-07-05T06:24:12.760Z,97718.56
2018-07-05T06:26:58.948Z,97718.88
2018-07-05T06:29:45.476Z,97718.47
2018-07-05T06:32:31.832Z,97721.16
2018-07-05T06:35:18.244Z,97721.61
2018-07-05T06:38:04.635Z,97728.38
2018-07-05T06:40:50.916Z,97728.19
2018-07-05T06:43:37.131Z,97723.11
2018-07-05T06:46:23.427Z,97723.31
2018-07-05T06:49:09.891Z,97720.58
2018-07-05T06:51:56.104Z,97719.41
2018-07-05T06:54:42.543Z,97713.83
2018-07-05T06:57:28.789Z,97706.67
2018-07-05T07:00:15.103Z,97699.86
2018-07-05T07:03:01.520Z,97701.85
2018-07-05T07:05:48.031Z,97702.25
2018-07-05T07:08:34.400Z,97709.39
2018-07-05T07:11:20.844Z,97708.63
2018-07-05T07:14:07.270Z,97714.37
2018-07-05T07:16:54.237Z,97715.75
2018-07-05T07:19:40.598Z,97717.93
2018-07-05T07:22:27.159Z,97713.11
2018-07-05T07:25:13.619Z,97716.86
2018-07-05T07:28:00.157Z,97704.07
2018-07-05T07:30:46.675Z,97710.22
2018-07-05T07:33:33.331Z,97712.36
2018-07-05T07:36:19.802Z,97702.73
2018-07-05T07:39:06.641Z,97706.93
2018-07-05T07:41:44.525Z,97701.28
2018-07-05T07:44:12.293Z,97697.31
2018-07-05T07:46:47.105Z,97669.44
2018-07-05T07:49:15.334Z,97696.15
2018-07-05T07:51:43.055Z,97696.58
2018-07-05T07:54:10.784Z,97699.32
2018-07-05T07:56:38.775Z,97694.52
2018-07-05T07:59:06.513Z,97685.58
2018-07-05T08:01:34.223Z,97684.85
2018-07-05T08:04:01.979Z,97681.02
2018-07-05T08:06:29.684Z,97674.69
2018-07-05T08:08:57.468Z,97676.83
2018-07-05T08:11:25.252Z,97674.03
2018-07-05T08:13:53.008Z,97681.07
2018-07-05T08:16:20.736Z,97680.34
2018-07-05T08:18:48.469Z,97684.67
2018-07-05T08:21:16.234Z,97684.03
2018-07-05T08:23:43.961Z,97674.37
2018-07-05T08:26:11.688Z,97668.50
2018-07-05T08:28:39.403Z,97658.99
2018-07-05T08:31:07.124Z,97665.50
2018-07-05T08:33:34.868Z,97665.33
2018-07-05T08:36:02.586Z,97675.55
2018-07-05T08:38:30.368Z,97698.56
2018-07-05T08:40:58.044Z,97713.11
2018-07-05T08:43:25.768Z,97729.27
2018-07-05T08:45:53.498Z,97717.55
2018-07-05T08:48:29.871Z,97723.52
2018-07-05T08:50:57.597Z,97730.67
2018-07-05T08:53:25.315Z,97739.20
2018-07-05T08:55:53.048Z,97728.88
2018-07-05T08:58:21.545Z,97714.70
2018-07-05T09:00:49.247Z,97711.78
2018-07-05T09:03:16.985Z,97708.28
2018-07-05T09:05:44.709Z,97709.02
2018-07-05T09:08:12.562Z,97710.03
2018-07-05T09:10:40.318Z,97702.88
2018-07-05T09:13:08.048Z,97684.22
2018-07-05T09:15:36.047Z,97688.00
2018-07-05T09:18:03.824Z,97694.55
2018-07-05T09:20:31.571Z,97695.65
2018-07-05T09:22:59.305Z,97702.37
2018-07-05T09:25:33.741Z,97688.27
2018-07-05T09:28:01.646Z,97693.23
2018-07-05T09:30:32.509Z,97704.59
2018-07-05T09:33:00.362Z,97717.05
2018-07-05T09:35:28.183Z,97730.51
2018-07-05T09:37:56.246Z,97731.59
2018-07-05T09:40:24.016Z,97743.41
2018-07-05T09:42:51.775Z,97741.77
2018-07-05T09:45:19.541Z,97750.30
2018-07-05T09:47:47.336Z,97749.86
2018-07-05T09:50:15.176Z,97745.84
2018-07-05T09:52:42.940Z,97735.97
2018-07-05T09:55:11.213Z,97736.94
2018-07-05T09:57:38.974Z,97737.55
2018-07-05T10:00:07.057Z,97742.19
2018-07-05T10:02:34.817Z,97748.74
2018-07-05T10:05:03.039Z,97750.16
2018-07-05T10:07:30.769Z,97745.10
2018-07-05T10:09:58.516Z,97750.87
2018-07-05T10:12:26.218Z,97756.85
2018-07-05T10:14:53.953Z,97751.41
2018-07-05T10:17:21.839Z,97743.99
2018-07-05T10:19:49.917Z,97728.03
2018-07-05T10:22:17.635Z,97725.91
2018-07-05T10:24:45.339Z,97734.31
2018-07-05T10:27:13.052Z,97751.23
2018-07-05T10:29:59.452Z,97756.69
2018-07-05T10:32:45.843Z,97764.73
2018-07-05T10:35:13.576Z,97772.66
2018-07-05T10:37:41.279Z,97774.67
2018-07-05T10:40:27.945Z,97771.86
2018-07-05T10:43:14.222Z,97761.42
2018-07-05T10:46:01.088Z,97759.94
2018-07-05T10:48:47.558Z,97764.83
2018-07-05T10:51:34.101Z,97757.53
2018-07-05T10:54:20.233Z,97746.45
2018-07-05T10:57:06.315Z,97747.77
2018-07-05T10:59:46.715Z,97745.56
2018-07-05T11:02:33.024Z,97740.90
2018-07-05T11:05:19.356Z,97741.02
2018-07-05T11:08:05.748Z,97723.61
2018-07-05T11:10:52.192Z,97717.69
2018-07-05T11:13:38.560Z,97719.09
2018-07-05T11:16:24.762Z,97728.30
2018-07-05T11:19:10.931Z,97724.70
2018-07-05T11:21:57.367Z,97714.08
2018-07-05T11:24:43.625Z,97709.34
2018-07-05T11:27:29.914Z,97712.37
2018-07-05T11:30:16.246Z,97727.58
2018-07-05T11:33:02.663Z,97730.42
2018-07-05T11:35:48.818Z,97724.11
2018-07-05T11:38:35.335Z,97720.88
2018-07-05T11:41:21.704Z,97729.70
2018-07-05T11:44:08.139Z,97740.00
2018-07-05T11:46:54.397Z,97753.02
2018-07-05T11:49:40.870Z,97756.88
2018-07-05T11:52:27.131Z,97753.63
2018-07-05T11:55:13.526Z,97757.44
2018-07-05T11:58:00.018Z,97759.94
2018-07-05T12:00:46.460Z,97754.23
2018-07-05T12:03:32.754Z,97746.50
2018-07-05T12:06:22.761Z,97747.31
2018-07-05T12:09:10.041Z,97745.23
2018-07-05T12:11:56.301Z,97739.80
2018-07-05T12:14:42.708Z,97732.13
2018-07-05T12:17:29.204Z,97731.34
2018-07-05T12:20:09.778Z,97730.78
2018-07-05T12:22:56.293Z,97729.78
2018-07-05T12:25:42.620Z,97719.09
2018-07-05T12:28:29.049Z,97712.00
2018-07-05T12:31:15.464Z,97713.67
2018-07-05T12:33:55.779Z,97708.31
2018-07-05T12:36:42.051Z,97700.78
2018-07-05T12:39:28.435Z,97688.58
2018-07-05T12:42:14.812Z,97685.84
2018-07-05T12:45:01.288Z,97685.59
2018-07-05T12:47:47.618Z,97685.34
2018-07-05T12:50:34.985Z,97677.07
2018-07-05T12:53:21.440Z,97675.02
2018-07-05T12:56:07.885Z,97676.92
2018-07-05T12:58:54.358Z,97671.38
2018-07-05T13:01:40.759Z,97676.96
2018-07-05T13:04:27.000Z,97684.34
2018-07-05T13:07:13.079Z,97688.84
2018-07-05T13:09:59.369Z,97690.66
2018-07-05T13:12:45.756Z,97692.94
2018-07-05T13:15:31.943Z,97700.09
2018-07-05T13:18:18.418Z,97708.31
2018-07-05T13:21:04.752Z,97713.67
2018-07-05T13:23:50.984Z,97713.16
2018-07-05T13:26:37.545Z,97714.67
2018-07-05T13:29:23.760Z,97720.34
2018-07-05T13:32:04.172Z,97720.55
2018-07-05T13:34:50.426Z,97720.98
2018-07-05T13:37:36.860Z,97725.69
2018-07-05T13:40:23.425Z,97731.50
2018-07-05T13:43:09.748Z,97735.60
2018-07-05T13:45:56.049Z,97739.20
2018-07-05T13:48:42.204Z,97743.30
2018-07-05T13:51:28.602Z,97749.19
2018-07-05T13:54:15.008Z,97758.98
2018-07-05T13:57:01.412Z,97753.33
2018-07-05T13:59:47.953Z,97752.86
2018-07-05T14:02:34.333Z,97755.57
2018-07-05T14:05:20.750Z,97754.88
2018-07-05T14:08:06.997Z,97755.98
2018-07-05T14:10:53.324Z,97759.98
2018-07-05T14:13:33.719Z,97752.37
2018-07-05T14:16:20.084Z,97754.44
2018-07-05T14:19:06.368Z,97755.90
2018-07-05T14:21:52.727Z,97760.66
2018-07-05T14:24:39.064Z,97755.55
2018-07-05T14:27:25.477Z,97753.79
2018-07-05T14:30:11.767Z,97759.34
2018-07-05T14:32:58.292Z,97758.77
2018-07-05T14:35:44.821Z,97757.30
2018-07-05T14:38:31.236Z,97761.94
2018-07-05T14:41:17.657Z,97762.94
2018-07-05T14:44:03.805Z,97760.48
2018-07-05T14:46:44.095Z,97765.25
2018-07-05T14:49:30.571Z,97759.37
2018-07-05T14:52:17.397Z,97761.25
2018-07-05T14:55:03.773Z,97761.34
2018-07-05T14:57:50.261Z,97761.50
2018-07-05T15:00:36.769Z,97759.30
2018-07-05T15:03:23.309Z,97749.20
2018-07-05T15:06:09.688Z,97747.33
2018-07-05T15:08:56.127Z,97752.25
2018-07-05T15:11:42.535Z,97745.95
2018-07-05T15:14:30.298Z,97746.86
2018-07-05T15:17:16.807Z,97758.91
2018-07-05T15:20:03.250Z,97764.68
2018-07-05T15:22:49.762Z,97765.25
2018-07-05T15:25:36.200Z,97767.19
2018-07-05T15:28:22.486Z,97764.67
2018-07-05T15:31:08.922Z,97770.77
2018-07-05T15:33:55.355Z,97769.77
2018-07-05T15:36:41.837Z,97773.45
2018-07-05T15:39:28.015Z,97774.45
2018-07-05T15:42:14.120Z,97776.16
2018-07-05T15:45:00.548Z,97778.69
2018-07-05T15:47:46.724Z,97777.16
2018-07-05T15:50:33.316Z,97771.12
2018-07-05T15:53:19.654Z,97767.68
2018-07-05T15:56:06.034Z,97763.21
2018-07-05T15:58:52.316Z,97758.89
2018-07-05T16:01:38.692Z,97754.48
2018-07-05T16:04:24.996Z,97750.50
2018-07-05T16:07:11.228Z,97743.44
2018-07-05T16:09:57.630Z,97741.58
2018-07-05T16:12:44.125Z,97746.15
2018-07-05T16:15:30.444Z,97745.58
2018-07-05T16:18:16.803Z,97745.52
2018-07-05T16:21:03.241Z,97746.58
2018-07-05T16:23:49.553Z,97749.83
2018-07-05T16:26:35.803Z,97742.85
2018-07-05T16:29:22.120Z,97742.30
2018-07-05T16:32:08.724Z,97737.55
2018-07-05T16:34:55.059Z,97738.56
2018-07-05T16:37:41.336Z,97735.00
2018-07-05T16:40:27.797Z,97736.20
2018-07-05T16:43:14.018Z,97734.96
2018-07-05T16:46:00.495Z,97728.39
2018-07-05T16:48:46.681Z,97727.56
2018-07-05T16:51:33.030Z,97728.72
2018-07-05T16:54:13.421Z,97723.49
2018-07-05T16:56:59.709Z,97727.63
2018-07-05T16:59:45.816Z,97729.55
2018-07-05T17:02:32.241Z,97722.23
2018-07-05T17:05:18.598Z,97723.13
2018-07-05T17:08:04.997Z,97718.58
2018-07-05T17:10:51.479Z,97724.95
2018-07-05T17:13:37.911Z,97729.13
2018-07-05T17:16:24.124Z,97728.47
2018-07-05T17:19:10.388Z,97728.73
2018-07-05T17:21:56.980Z,97729.42
2018-07-05T17:24:43.420Z,97730.58
2018-07-05T17:27:29.877Z,97735.78
2018-07-05T17:30:16.165Z,97740.50
2018-07-05T17:33:02.596Z,97735.78
2018-07-05T17:35:48.916Z,97739.87
2018-07-05T17:39:38.460Z,97744.23
2018-07-05T17:42:24.747Z,97741.73
2018-07-05T17:45:11.033Z,97747.17
2018-07-05T17:47:57.429Z,97745.05
2018-07-05T17:50:43.837Z,97748.56
2018-07-05T17:53:30.430Z,97745.59
2018-07-05T17:56:16.692Z,97755.90
2018-07-05T17:59:02.972Z,97752.42
2018-07-05T18:01:49.212Z,97756.50
2018-07-05T18:04:35.691Z,97763.19
2018-07-05T18:07:22.111Z,97756.98
2018-07-05T18:10:08.559Z,97762.02
2018-07-05T18:12:54.885Z,97765.87
2018-07-05T18:15:41.317Z,97767.75
2018-07-05T18:18:27.620Z,97771.27
2018-07-05T18:21:14.012Z,97771.27
2018-07-05T18:24:00.218Z,97769.80
2018-07-05T18:26:46.509Z,97771.84
2018-07-05T18:29:32.852Z,97775.13
2018-07-05T18:32:19.176Z,97781.24
2018-07-05T18:35:05.324Z,97775.69
2018-07-05T18:37:51.759Z,97783.58
2018-07-05T18:40:38.034Z,97785.59
2018-07-05T18:43:24.367Z,97781.52
2018-07-05T18:46:10.811Z,97782.11
2018-07-05T18:48:57.160Z,97784.20
2018-07-05T18:51:43.684Z,97786.45
2018-07-05T18:54:30.028Z,97785.61
2018-07-05T18:57:16.410Z,97785.33
2018-07-05T19:00:02.729Z,97785.03
2018-07-05T19:02:49.153Z,97791.19
2018-07-05T19:05:35.617Z,97790.00
2018-07-05T19:08:21.987Z,97798.86
2018-07-05T19:11:08.356Z,97803.45
2018-07-05T19:13:54.823Z,97802.80
2018-07-05T19:16:41.692Z,97805.48
2018-07-05T19:19:28.220Z,97809.70
2018-07-05T19:22:14.724Z,97812.97
2018-07-05T19:25:01.692Z,97818.20
2018-07-05T19:27:48.778Z,97824.06
2018-07-05T19:30:35.880Z,97827.31
2018-07-05T19:33:22.707Z,97829.50
2018-07-05T19:36:09.101Z,97828.75
2018-07-05T19:38:55.621Z,97832.17
2018-07-05T19:41:42.349Z,97838.78
2018-07-05T19:44:28.839Z,97845.09
2018-07-05T19:47:15.457Z,97848.23
2018-07-05T19:50:01.840Z,97846.73
2018-07-05T19:52:48.277Z,97852.36
2018-07-05T19:55:34.701Z,97860.52
2018-07-05T19:58:21.207Z,97857.70
2018-07-05T20:03:47.411Z,97859.36
2018-07-05T20:06:34.093Z,97867.70
2018-07-05T20:09:20.635Z,97868.77
2018-07-05T20:12:08.445Z,97874.97
2018-07-05T20:14:54.805Z,97873.45
2018-07-05T20:17:41.152Z,97877.98
2018-07-05T20:20:27.549Z,97873.23
2018-07-05T20:23:13.843Z,97875.17
2018-07-05T20:26:00.323Z,97884.17
2018-07-05T20:28:47.106Z,97885.08
2018-07-05T20:31:33.420Z,97881.04
2018-07-05T20:34:19.951Z,97887.19
2018-07-05T20:37:06.385Z,97882.40
2018-07-05T20:39:52.876Z,97881.69
2018-07-05T20:42:39.929Z,97884.29
2018-07-05T20:45:25.949Z,97885.88
2018-07-05T20:48:12.565Z,97887.80
2018-07-05T20:50:59.180Z,97888.27
2018-07-05T20:53:45.512Z,97893.70
2018-07-05T20:56:32.036Z,97892.74
2018-07-05T20:59:18.361Z,97885.34
2018-07-05T21:02:04.777Z,97892.37
2018-07-05T21:04:51.137Z,97892.47
2018-07-05T21:07:37.704Z,97891.31
2018-07-05T21:10:24.044Z,97900.53
2018-07-05T21:13:10.331Z,97898.84
2018-07-05T21:15:56.777Z,97891.50
2018-07-05T21:18:43.222Z,97896.30
2018-07-05T21:21:29.675Z,97898.73
2018-07-05T21:24:16.172Z,97902.58
2018-07-05T21:27:02.682Z,97905.66
2018-07-05T21:29:49.428Z,97909.58
2018-07-05T21:32:35.843Z,97914.23
2018-07-05T21:35:22.055Z,97913.40
2018-07-05T21:38:08.586Z,97912.24
2018-07-05T21:40:55.076Z,97918.53
2018-07-05T21:43:41.501Z,97913.70
2018-07-05T21:46:27.775Z,97916.32
2018-07-05T21:49:14.020Z,97916.95
2018-07-05T21:52:00.470Z,97923.28
2018-07-05T21:54:46.860Z,97927.66
2018-07-05T21:57:33.433Z,97926.51
2018-07-05T22:00:19.812Z,97926.28
2018-07-05T22:03:05.958Z,97929.81
2018-07-05T22:05:52.073Z,97931.65
2018-07-05T22:08:38.592Z,97929.05
2018-07-05T22:11:24.994Z,97928.81
2018-07-05T22:14:11.498Z,97938.84
2018-07-05T22:17:03.239Z,97939.66
2018-07-05T22:19:55.072Z,97942.50
2018-07-05T22:22:46.796Z,97939.80
2018-07-05T22:25:38.348Z,97942.63
2018-07-05T22:28:30.056Z,97947.88
2018-07-05T22:31:21.785Z,97947.05
2018-07-05T22:34:08.301Z,97949.78
2018-07-05T22:36:54.764Z,97955.08
2018-07-05T22:39:41.108Z,97958.44
2018-07-05T22:42:27.589Z,97966.22
2018-07-05T22:45:13.923Z,97966.45
2018-07-05T22:48:00.475Z,97964.83
2018-07-05T22:50:46.857Z,97974.06
2018-07-05T22:53:33.369Z,97978.38
2018-07-05T22:56:19.652Z,97976.62
2018-07-05T22:59:06.162Z,97975.41
2018-07-05T23:01:52.499Z,97985.47
2018-07-05T23:04:38.973Z,97987.66
2018-07-05T23:07:25.475Z,97991.09
2018-07-05T23:10:11.882Z,97993.70
2018-07-05T23:12:58.208Z,97992.64
2018-07-05T23:15:44.600Z,97997.71
2018-07-05T23:18:30.989Z,98000.39
2018-07-05T23:21:17.441Z,97997.47
2018-07-05T23:24:03.840Z,97996.17
2018-07-05T23:26:50.200Z,97998.33
2018-07-05T23:29:36.716Z,97994.38
2018-07-05T23:32:23.187Z,97996.45
2018-07-05T23:35:09.826Z,97992.83
2018-07-05T23:37:56.314Z,97993.67
2018-07-05T23:40:42.866Z,97986.12
2018-07-05T23:43:29.308Z,97988.33
2018-07-05T23:46:15.832Z,97990.45
2018-07-05T23:49:02.143Z,97987.92
2018-07-05T23:51:48.627Z,97993.30
2018-07-05T23:54:34.856Z,97994.68
2018-07-05T23:57:21.219Z,97991.01
